sensor_id;sensor_type;location;lat;lon;timestamp;P1;durP1;ratioP1;P2;durP2;ratioP2
74543;SDS011;63016;55.030;38.710;2022-10-13T00:00:26;9.43;;;4.55;;
74543;SDS011;63016;55.030;38.710;2022-10-13T00:02:51;7.43;;;4.25;;
74543;SDS011;63016;55.030;38.710;2022-10-13T00:05:17;9.68;;;4.53;;
74543;SDS011;63016;55.030;38.710;2022-10-13T00:07:42;13.20;;;4.82;;
74543;SDS011;63016;55.030;38.710;2022-10-13T00:10:08;7.82;;;3.90;;
74543;SDS011;63016;55.030;38.710;2022-10-13T00:12:37;9.75;;;4.47;;
74543;SDS011;63016;55.030;38.710;2022-10-13T00:15:03;10.43;;;4.25;;
74543;SDS011;63016;55.030;38.710;2022-10-13T00:17:30;10.15;;;4.68;;
74543;SDS011;63016;55.030;38.710;2022-10-13T00:19:56;9.30;;;4.72;;
74543;SDS011;63016;55.030;38.710;2022-10-13T00:22:21;14.25;;;4.88;;
74543;SDS011;63016;55.030;38.710;2022-10-13T00:24:50;11.85;;;5.40;;
74543;SDS011;63016;55.030;38.710;2022-10-13T00:27:16;11.48;;;4.53;;
74543;SDS011;63016;55.030;38.710;2022-10-13T00:29:42;12.25;;;4.88;;
74543;SDS011;63016;55.030;38.710;2022-10-13T00:32:08;10.40;;;4.78;;
74543;SDS011;63016;55.030;38.710;2022-10-13T00:34:35;11.50;;;5.25;;
74543;SDS011;63016;55.030;38.710;2022-10-13T00:37:01;14.32;;;5.47;;
74543;SDS011;63016;55.030;38.710;2022-10-13T00:39:26;17.48;;;5.88;;
74543;SDS011;63016;55.030;38.710;2022-10-13T00:41:52;11.38;;;5.20;;
74543;SDS011;63016;55.030;38.710;2022-10-13T00:47:20;14.23;;;6.30;;
74543;SDS011;63016;55.030;38.710;2022-10-13T00:49:47;10.77;;;4.88;;
74543;SDS011;63016;55.030;38.710;2022-10-13T00:52:14;14.00;;;5.53;;
74543;SDS011;63016;55.030;38.710;2022-10-13T00:54:41;12.15;;;5.93;;
74543;SDS011;63016;55.030;38.710;2022-10-13T00:57:08;16.48;;;5.82;;
74543;SDS011;63016;55.030;38.710;2022-10-13T00:59:34;10.68;;;5.10;;
74543;SDS011;63016;55.030;38.710;2022-10-13T01:02:01;10.70;;;5.25;;
74543;SDS011;63016;55.030;38.710;2022-10-13T01:04:32;12.48;;;5.10;;
74543;SDS011;63016;55.030;38.710;2022-10-13T01:07:01;11.52;;;5.22;;
74543;SDS011;63016;55.030;38.710;2022-10-13T01:09:27;16.90;;;6.40;;
74543;SDS011;63016;55.030;38.710;2022-10-13T01:12:07;16.40;;;5.93;;
74543;SDS011;63016;55.030;38.710;2022-10-13T01:19:59;15.43;;;6.30;;
74543;SDS011;63016;55.030;38.710;2022-10-13T01:34:30;16.05;;;6.22;;
74543;SDS011;63016;55.030;38.710;2022-10-13T01:39:45;17.77;;;6.80;;
74543;SDS011;63016;55.030;38.710;2022-10-13T01:42:39;18.48;;;6.10;;
74543;SDS011;63016;55.030;38.710;2022-10-13T01:45:13;13.95;;;6.35;;
74543;SDS011;63016;55.030;38.710;2022-10-13T01:47:42;14.68;;;6.22;;
74543;SDS011;63016;55.030;38.710;2022-10-13T01:50:09;17.05;;;6.25;;
74543;SDS011;63016;55.030;38.710;2022-10-13T01:52:36;13.73;;;5.72;;
74543;SDS011;63016;55.030;38.710;2022-10-13T01:55:07;14.18;;;6.03;;
74543;SDS011;63016;55.030;38.710;2022-10-13T01:57:36;12.65;;;5.43;;
74543;SDS011;63016;55.030;38.710;2022-10-13T02:00:08;13.93;;;6.25;;
74543;SDS011;63016;55.030;38.710;2022-10-13T02:07:51;13.35;;;5.60;;
74543;SDS011;63016;55.030;38.710;2022-10-13T02:12:59;13.02;;;5.55;;
74543;SDS011;63016;55.030;38.710;2022-10-13T02:15:29;11.98;;;5.40;;
74543;SDS011;63016;55.030;38.710;2022-10-13T02:17:59;16.88;;;5.38;;
74543;SDS011;63016;55.030;38.710;2022-10-13T02:20:26;15.32;;;5.93;;
74543;SDS011;63016;55.030;38.710;2022-10-13T02:22:56;14.20;;;5.00;;
74543;SDS011;63016;55.030;38.710;2022-10-13T02:25:27;13.27;;;5.13;;
74543;SDS011;63016;55.030;38.710;2022-10-13T02:27:53;10.75;;;5.40;;
74543;SDS011;63016;55.030;38.710;2022-10-13T02:30:22;14.05;;;5.13;;
74543;SDS011;63016;55.030;38.710;2022-10-13T02:32:52;12.80;;;5.53;;
74543;SDS011;63016;55.030;38.710;2022-10-13T02:35:17;13.68;;;5.40;;
74543;SDS011;63016;55.030;38.710;2022-10-13T02:37:43;15.63;;;5.45;;
74543;SDS011;63016;55.030;38.710;2022-10-13T02:40:08;12.15;;;5.07;;
74543;SDS011;63016;55.030;38.710;2022-10-13T02:42:34;13.93;;;5.85;;
74543;SDS011;63016;55.030;38.710;2022-10-13T02:45:00;13.63;;;5.65;;
74543;SDS011;63016;55.030;38.710;2022-10-13T02:47:25;12.45;;;5.97;;
74543;SDS011;63016;55.030;38.710;2022-10-13T02:49:51;11.52;;;5.50;;
74543;SDS011;63016;55.030;38.710;2022-10-13T02:52:16;14.25;;;5.57;;
74543;SDS011;63016;55.030;38.710;2022-10-13T02:54:42;18.38;;;5.60;;
74543;SDS011;63016;55.030;38.710;2022-10-13T02:57:07;11.23;;;5.65;;
74543;SDS011;63016;55.030;38.710;2022-10-13T02:59:33;15.57;;;5.75;;
74543;SDS011;63016;55.030;38.710;2022-10-13T03:01:58;14.13;;;5.90;;
74543;SDS011;63016;55.030;38.710;2022-10-13T03:04:24;13.82;;;5.75;;
74543;SDS011;63016;55.030;38.710;2022-10-13T03:06:49;12.35;;;5.28;;
74543;SDS011;63016;55.030;38.710;2022-10-13T03:09:15;16.50;;;5.22;;
74543;SDS011;63016;55.030;38.710;2022-10-13T03:11:40;13.10;;;5.22;;
74543;SDS011;63016;55.030;38.710;2022-10-13T03:14:06;15.07;;;4.88;;
74543;SDS011;63016;55.030;38.710;2022-10-13T03:16:32;10.70;;;5.50;;
74543;SDS011;63016;55.030;38.710;2022-10-13T03:18:57;15.18;;;5.70;;
74543;SDS011;63016;55.030;38.710;2022-10-13T03:21:24;17.60;;;5.78;;
74543;SDS011;63016;55.030;38.710;2022-10-13T03:23:49;9.13;;;4.80;;
74543;SDS011;63016;55.030;38.710;2022-10-13T03:26:15;19.05;;;5.90;;
74543;SDS011;63016;55.030;38.710;2022-10-13T03:28:41;10.90;;;5.47;;
74543;SDS011;63016;55.030;38.710;2022-10-13T03:31:07;13.13;;;5.65;;
74543;SDS011;63016;55.030;38.710;2022-10-13T03:33:35;13.25;;;5.30;;
74543;SDS011;63016;55.030;38.710;2022-10-13T03:36:01;10.88;;;5.28;;
74543;SDS011;63016;55.030;38.710;2022-10-13T03:38:29;12.90;;;5.50;;
74543;SDS011;63016;55.030;38.710;2022-10-13T03:40:56;9.55;;;5.00;;
74543;SDS011;63016;55.030;38.710;2022-10-13T03:43:22;12.10;;;5.53;;
74543;SDS011;63016;55.030;38.710;2022-10-13T03:45:55;11.52;;;5.50;;
74543;SDS011;63016;55.030;38.710;2022-10-13T03:48:21;12.45;;;5.38;;
74543;SDS011;63016;55.030;38.710;2022-10-13T03:50:46;12.77;;;5.03;;
74543;SDS011;63016;55.030;38.710;2022-10-13T03:53:12;11.48;;;5.13;;
74543;SDS011;63016;55.030;38.710;2022-10-13T03:55:37;9.38;;;5.03;;
74543;SDS011;63016;55.030;38.710;2022-10-13T03:58:03;11.27;;;4.82;;
74543;SDS011;63016;55.030;38.710;2022-10-13T04:00:28;11.63;;;4.60;;
74543;SDS011;63016;55.030;38.710;2022-10-13T04:02:54;12.38;;;4.88;;
74543;SDS011;63016;55.030;38.710;2022-10-13T04:05:20;10.27;;;5.03;;
74543;SDS011;63016;55.030;38.710;2022-10-13T04:07:45;12.40;;;5.03;;
74543;SDS011;63016;55.030;38.710;2022-10-13T04:10:10;12.02;;;5.43;;
74543;SDS011;63016;55.030;38.710;2022-10-13T04:12:36;11.23;;;4.75;;
74543;SDS011;63016;55.030;38.710;2022-10-13T04:15:02;11.10;;;4.80;;
74543;SDS011;63016;55.030;38.710;2022-10-13T04:17:28;13.10;;;5.32;;
74543;SDS011;63016;55.030;38.710;2022-10-13T04:19:54;14.05;;;4.97;;
74543;SDS011;63016;55.030;38.710;2022-10-13T04:22:19;9.07;;;4.82;;
74543;SDS011;63016;55.030;38.710;2022-10-13T04:24:45;10.70;;;5.35;;
74543;SDS011;63016;55.030;38.710;2022-10-13T04:27:10;9.52;;;4.78;;
74543;SDS011;63016;55.030;38.710;2022-10-13T04:29:36;10.15;;;4.43;;
74543;SDS011;63016;55.030;38.710;2022-10-13T04:32:01;13.07;;;5.20;;
74543;SDS011;63016;55.030;38.710;2022-10-13T04:34:27;10.07;;;4.70;;
74543;SDS011;63016;55.030;38.710;2022-10-13T04:36:53;15.77;;;4.82;;
74543;SDS011;63016;55.030;38.710;2022-10-13T04:39:18;13.05;;;4.55;;
74543;SDS011;63016;55.030;38.710;2022-10-13T04:41:44;13.07;;;4.90;;
74543;SDS011;63016;55.030;38.710;2022-10-13T04:44:09;14.75;;;4.63;;
74543;SDS011;63016;55.030;38.710;2022-10-13T04:46:35;14.90;;;5.78;;
74543;SDS011;63016;55.030;38.710;2022-10-13T04:49:00;16.50;;;5.15;;
74543;SDS011;63016;55.030;38.710;2022-10-13T04:51:26;13.10;;;4.95;;
74543;SDS011;63016;55.030;38.710;2022-10-13T04:53:58;11.57;;;5.25;;
74543;SDS011;63016;55.030;38.710;2022-10-13T04:56:25;12.98;;;5.15;;
74543;SDS011;63016;55.030;38.710;2022-10-13T04:58:51;12.80;;;4.60;;
74543;SDS011;63016;55.030;38.710;2022-10-13T05:01:18;11.02;;;5.57;;
74543;SDS011;63016;55.030;38.710;2022-10-13T05:03:45;14.68;;;5.72;;
74543;SDS011;63016;55.030;38.710;2022-10-13T05:06:21;11.98;;;5.32;;
74543;SDS011;63016;55.030;38.710;2022-10-13T05:08:49;10.50;;;5.05;;
74543;SDS011;63016;55.030;38.710;2022-10-13T05:11:15;11.85;;;4.88;;
74543;SDS011;63016;55.030;38.710;2022-10-13T05:13:42;10.60;;;5.38;;
74543;SDS011;63016;55.030;38.710;2022-10-13T05:16:08;13.00;;;5.63;;
74543;SDS011;63016;55.030;38.710;2022-10-13T05:18:35;10.40;;;5.18;;
74543;SDS011;63016;55.030;38.710;2022-10-13T05:21:05;13.18;;;5.43;;
74543;SDS011;63016;55.030;38.710;2022-10-13T05:23:35;11.50;;;5.50;;
74543;SDS011;63016;55.030;38.710;2022-10-13T05:26:02;13.13;;;5.35;;
74543;SDS011;63016;55.030;38.710;2022-10-13T05:28:29;10.57;;;5.65;;
74543;SDS011;63016;55.030;38.710;2022-10-13T05:30:54;12.07;;;4.85;;
74543;SDS011;63016;55.030;38.710;2022-10-13T05:33:20;11.93;;;5.35;;
74543;SDS011;63016;55.030;38.710;2022-10-13T05:35:45;12.25;;;5.18;;
74543;SDS011;63016;55.030;38.710;2022-10-13T05:38:13;12.98;;;5.78;;
74543;SDS011;63016;55.030;38.710;2022-10-13T05:40:38;13.15;;;5.20;;
74543;SDS011;63016;55.030;38.710;2022-10-13T05:43:04;14.00;;;5.50;;
74543;SDS011;63016;55.030;38.710;2022-10-13T05:45:30;10.00;;;5.25;;
74543;SDS011;63016;55.030;38.710;2022-10-13T05:47:57;10.98;;;5.15;;
74543;SDS011;63016;55.030;38.710;2022-10-13T05:50:22;12.15;;;5.55;;
74543;SDS011;63016;55.030;38.710;2022-10-13T05:52:49;13.27;;;5.78;;
74543;SDS011;63016;55.030;38.710;2022-10-13T05:55:15;16.13;;;6.13;;
74543;SDS011;63016;55.030;38.710;2022-10-13T05:57:43;17.52;;;5.53;;
74543;SDS011;63016;55.030;38.710;2022-10-13T06:00:13;10.38;;;5.20;;
74543;SDS011;63016;55.030;38.710;2022-10-13T06:02:45;13.10;;;5.88;;
74543;SDS011;63016;55.030;38.710;2022-10-13T06:05:26;15.50;;;6.45;;
74543;SDS011;63016;55.030;38.710;2022-10-13T06:07:52;13.07;;;6.70;;
74543;SDS011;63016;55.030;38.710;2022-10-13T06:10:19;17.77;;;7.93;;
74543;SDS011;63016;55.030;38.710;2022-10-13T06:12:45;12.27;;;7.35;;
74543;SDS011;63016;55.030;38.710;2022-10-13T06:15:11;22.60;;;8.98;;
74543;SDS011;63016;55.030;38.710;2022-10-13T06:17:37;19.17;;;10.35;;
74543;SDS011;63016;55.030;38.710;2022-10-13T06:20:10;15.98;;;9.43;;
74543;SDS011;63016;55.030;38.710;2022-10-13T06:22:36;17.92;;;9.57;;
74543;SDS011;63016;55.030;38.710;2022-10-13T06:25:03;18.88;;;10.35;;
74543;SDS011;63016;55.030;38.710;2022-10-13T06:27:30;18.63;;;9.52;;
74543;SDS011;63016;55.030;38.710;2022-10-13T06:29:55;18.95;;;8.70;;
74543;SDS011;63016;55.030;38.710;2022-10-13T06:32:21;16.38;;;9.23;;
74543;SDS011;63016;55.030;38.710;2022-10-13T06:34:47;15.07;;;8.30;;
74543;SDS011;63016;55.030;38.710;2022-10-13T06:37:12;16.48;;;8.98;;
74543;SDS011;63016;55.030;38.710;2022-10-13T06:39:38;16.35;;;8.02;;
74543;SDS011;63016;55.030;38.710;2022-10-13T06:42:03;14.00;;;7.95;;
74543;SDS011;63016;55.030;38.710;2022-10-13T06:44:30;16.38;;;7.22;;
74543;SDS011;63016;55.030;38.710;2022-10-13T06:46:56;12.15;;;7.22;;
74543;SDS011;63016;55.030;38.710;2022-10-13T06:49:22;12.05;;;6.85;;
74543;SDS011;63016;55.030;38.710;2022-10-13T06:51:48;13.48;;;7.10;;
74543;SDS011;63016;55.030;38.710;2022-10-13T06:54:14;16.88;;;6.80;;
74543;SDS011;63016;55.030;38.710;2022-10-13T06:56:39;10.90;;;6.10;;
74543;SDS011;63016;55.030;38.710;2022-10-13T06:59:05;12.77;;;6.47;;
74543;SDS011;63016;55.030;38.710;2022-10-13T07:01:31;9.60;;;5.97;;
74543;SDS011;63016;55.030;38.710;2022-10-13T07:03:56;12.18;;;5.53;;
74543;SDS011;63016;55.030;38.710;2022-10-13T07:06:22;10.77;;;5.43;;
74543;SDS011;63016;55.030;38.710;2022-10-13T07:08:48;9.13;;;5.75;;
74543;SDS011;63016;55.030;38.710;2022-10-13T07:11:14;10.27;;;5.82;;
74543;SDS011;63016;55.030;38.710;2022-10-13T07:13:40;11.80;;;5.32;;
74543;SDS011;63016;55.030;38.710;2022-10-13T07:16:06;10.23;;;4.75;;
74543;SDS011;63016;55.030;38.710;2022-10-13T07:18:33;9.63;;;5.00;;
74543;SDS011;63016;55.030;38.710;2022-10-13T07:20:59;9.15;;;4.70;;
74543;SDS011;63016;55.030;38.710;2022-10-13T07:23:25;7.18;;;4.50;;
74543;SDS011;63016;55.030;38.710;2022-10-13T07:25:52;9.68;;;4.55;;
74543;SDS011;63016;55.030;38.710;2022-10-13T07:28:18;7.28;;;4.80;;
74543;SDS011;63016;55.030;38.710;2022-10-13T07:30:44;7.55;;;4.57;;
74543;SDS011;63016;55.030;38.710;2022-10-13T07:33:10;9.15;;;4.72;;
74543;SDS011;63016;55.030;38.710;2022-10-13T07:35:38;8.63;;;4.57;;
74543;SDS011;63016;55.030;38.710;2022-10-13T07:38:04;7.18;;;3.95;;
74543;SDS011;63016;55.030;38.710;2022-10-13T07:40:30;6.75;;;3.50;;
74543;SDS011;63016;55.030;38.710;2022-10-13T07:42:56;7.28;;;4.20;;
74543;SDS011;63016;55.030;38.710;2022-10-13T07:45:21;5.55;;;3.53;;
74543;SDS011;63016;55.030;38.710;2022-10-13T07:47:47;7.05;;;3.50;;
74543;SDS011;63016;55.030;38.710;2022-10-13T07:50:14;7.35;;;3.42;;
74543;SDS011;63016;55.030;38.710;2022-10-13T07:52:40;8.02;;;3.75;;
74543;SDS011;63016;55.030;38.710;2022-10-13T07:55:06;4.45;;;3.28;;
74543;SDS011;63016;55.030;38.710;2022-10-13T07:57:32;4.18;;;3.00;;
74543;SDS011;63016;55.030;38.710;2022-10-13T07:59:58;8.43;;;3.45;;
74543;SDS011;63016;55.030;38.710;2022-10-13T08:02:23;6.30;;;2.58;;
74543;SDS011;63016;55.030;38.710;2022-10-13T08:04:50;7.18;;;2.40;;
74543;SDS011;63016;55.030;38.710;2022-10-13T08:07:15;6.80;;;3.13;;
74543;SDS011;63016;55.030;38.710;2022-10-13T08:09:41;8.93;;;2.78;;
74543;SDS011;63016;55.030;38.710;2022-10-13T08:12:07;6.25;;;2.58;;
74543;SDS011;63016;55.030;38.710;2022-10-13T08:14:32;4.78;;;2.42;;
74543;SDS011;63016;55.030;38.710;2022-10-13T08:16:58;4.72;;;2.55;;
74543;SDS011;63016;55.030;38.710;2022-10-13T08:19:23;6.05;;;2.47;;
74543;SDS011;63016;55.030;38.710;2022-10-13T08:21:50;4.50;;;2.30;;
74543;SDS011;63016;55.030;38.710;2022-10-13T08:24:16;4.93;;;2.40;;
74543;SDS011;63016;55.030;38.710;2022-10-13T08:26:43;6.20;;;2.40;;
74543;SDS011;63016;55.030;38.710;2022-10-13T08:29:11;4.97;;;2.75;;
74543;SDS011;63016;55.030;38.710;2022-10-13T08:31:37;5.03;;;2.47;;
74543;SDS011;63016;55.030;38.710;2022-10-13T08:34:03;7.55;;;2.50;;
74543;SDS011;63016;55.030;38.710;2022-10-13T08:36:28;3.78;;;1.98;;
74543;SDS011;63016;55.030;38.710;2022-10-13T08:38:54;7.20;;;2.67;;
74543;SDS011;63016;55.030;38.710;2022-10-13T08:41:22;4.68;;;2.33;;
74543;SDS011;63016;55.030;38.710;2022-10-13T08:43:51;4.80;;;2.30;;
74543;SDS011;63016;55.030;38.710;2022-10-13T08:46:25;5.45;;;2.20;;
74543;SDS011;63016;55.030;38.710;2022-10-13T08:48:53;4.15;;;2.13;;
74543;SDS011;63016;55.030;38.710;2022-10-13T08:51:20;3.45;;;1.90;;
74543;SDS011;63016;55.030;38.710;2022-10-13T08:53:46;7.00;;;2.25;;
74543;SDS011;63016;55.030;38.710;2022-10-13T08:56:14;3.28;;;1.75;;
74543;SDS011;63016;55.030;38.710;2022-10-13T08:58:41;5.03;;;2.13;;
74543;SDS011;63016;55.030;38.710;2022-10-13T09:06:32;4.22;;;1.73;;
74543;SDS011;63016;55.030;38.710;2022-10-13T09:09:07;3.45;;;1.35;;
74543;SDS011;63016;55.030;38.710;2022-10-13T09:11:36;4.10;;;1.40;;
74543;SDS011;63016;55.030;38.710;2022-10-13T09:14:08;2.55;;;1.30;;
74543;SDS011;63016;55.030;38.710;2022-10-13T09:16:39;3.08;;;1.35;;
74543;SDS011;63016;55.030;38.710;2022-10-13T09:24:38;2.92;;;1.10;;
74543;SDS011;63016;55.030;38.710;2022-10-13T09:27:05;5.68;;;1.10;;
74543;SDS011;63016;55.030;38.710;2022-10-13T09:29:36;2.25;;;0.80;;
74543;SDS011;63016;55.030;38.710;2022-10-13T09:32:06;2.42;;;1.38;;
74543;SDS011;63016;55.030;38.710;2022-10-13T09:34:52;3.75;;;1.10;;
74543;SDS011;63016;55.030;38.710;2022-10-13T09:37:20;2.47;;;0.80;;
74543;SDS011;63016;55.030;38.710;2022-10-13T09:42:49;5.65;;;1.08;;
74543;SDS011;63016;55.030;38.710;2022-10-13T09:45:19;1.75;;;0.90;;
74543;SDS011;63016;55.030;38.710;2022-10-13T09:47:52;4.07;;;1.05;;
74543;SDS011;63016;55.030;38.710;2022-10-13T09:50:22;3.20;;;1.00;;
74543;SDS011;63016;55.030;38.710;2022-10-13T09:52:51;1.67;;;0.90;;
74543;SDS011;63016;55.030;38.710;2022-10-13T09:55:30;2.50;;;0.88;;
74543;SDS011;63016;55.030;38.710;2022-10-13T09:58:18;2.60;;;1.00;;
74543;SDS011;63016;55.030;38.710;2022-10-13T10:00:54;2.72;;;1.00;;
74543;SDS011;63016;55.030;38.710;2022-10-13T10:03:23;4.25;;;1.13;;
74543;SDS011;63016;55.030;38.710;2022-10-13T10:05:53;4.95;;;1.73;;
74543;SDS011;63016;55.030;38.710;2022-10-13T10:11:38;7.63;;;1.20;;
74543;SDS011;63016;55.030;38.710;2022-10-13T10:14:25;2.15;;;0.93;;
74543;SDS011;63016;55.030;38.710;2022-10-13T10:16:58;1.63;;;1.00;;
74543;SDS011;63016;55.030;38.710;2022-10-13T10:19:31;1.65;;;0.82;;
74543;SDS011;63016;55.030;38.710;2022-10-13T10:25:29;3.67;;;1.50;;
74543;SDS011;63016;55.030;38.710;2022-10-13T10:30:30;3.50;;;1.13;;
74543;SDS011;63016;55.030;38.710;2022-10-13T10:33:03;1.98;;;0.80;;
74543;SDS011;63016;55.030;38.710;2022-10-13T10:46:57;1.95;;;0.98;;
74543;SDS011;63016;55.030;38.710;2022-10-13T10:49:31;1.35;;;0.80;;
74543;SDS011;63016;55.030;38.710;2022-10-13T10:51:59;2.33;;;1.17;;
74543;SDS011;63016;55.030;38.710;2022-10-13T10:54:32;5.65;;;1.33;;
74543;SDS011;63016;55.030;38.710;2022-10-13T11:05:21;4.38;;;1.23;;
74543;SDS011;63016;55.030;38.710;2022-10-13T11:10:19;2.38;;;1.10;;
74543;SDS011;63016;55.030;38.710;2022-10-13T11:12:47;2.05;;;1.40;;
74543;SDS011;63016;55.030;38.710;2022-10-13T11:15:40;3.53;;;1.55;;
74543;SDS011;63016;55.030;38.710;2022-10-13T11:23:35;5.10;;;1.30;;
74543;SDS011;63016;55.030;38.710;2022-10-13T11:26:28;5.00;;;1.20;;
74543;SDS011;63016;55.030;38.710;2022-10-13T11:29:14;6.75;;;1.40;;
74543;SDS011;63016;55.030;38.710;2022-10-13T11:31:52;5.30;;;1.38;;
74543;SDS011;63016;55.030;38.710;2022-10-13T11:34:26;5.18;;;1.30;;
74543;SDS011;63016;55.030;38.710;2022-10-13T11:36:54;5.18;;;1.50;;
74543;SDS011;63016;55.030;38.710;2022-10-13T11:44:24;4.45;;;1.70;;
74543;SDS011;63016;55.030;38.710;2022-10-13T11:47:08;4.13;;;1.92;;
74543;SDS011;63016;55.030;38.710;2022-10-13T11:49:52;4.43;;;1.35;;
74543;SDS011;63016;55.030;38.710;2022-10-13T11:52:25;4.20;;;1.10;;
74543;SDS011;63016;55.030;38.710;2022-10-13T11:55:04;2.40;;;1.15;;
74543;SDS011;63016;55.030;38.710;2022-10-13T11:58:45;5.57;;;1.45;;
74543;SDS011;63016;55.030;38.710;2022-10-13T12:00:58;7.10;;;1.30;;
74543;SDS011;63016;55.030;38.710;2022-10-13T12:03:31;2.22;;;1.30;;
74543;SDS011;63016;55.030;38.710;2022-10-13T12:06:06;2.15;;;1.10;;
74543;SDS011;63016;55.030;38.710;2022-10-13T12:08:50;1.38;;;1.10;;
74543;SDS011;63016;55.030;38.710;2022-10-13T12:11:23;2.60;;;1.35;;
74543;SDS011;63016;55.030;38.710;2022-10-13T12:13:52;4.00;;;1.52;;
74543;SDS011;63016;55.030;38.710;2022-10-13T12:16:17;4.22;;;1.35;;
74543;SDS011;63016;55.030;38.710;2022-10-13T12:18:43;5.28;;;1.80;;
74543;SDS011;63016;55.030;38.710;2022-10-13T12:21:10;5.18;;;1.98;;
74543;SDS011;63016;55.030;38.710;2022-10-13T12:23:37;5.43;;;2.15;;
74543;SDS011;63016;55.030;38.710;2022-10-13T12:26:03;6.18;;;2.60;;
74543;SDS011;63016;55.030;38.710;2022-10-13T12:28:42;8.10;;;2.83;;
74543;SDS011;63016;55.030;38.710;2022-10-13T12:31:37;5.25;;;3.15;;
74543;SDS011;63016;55.030;38.710;2022-10-13T12:34:02;4.78;;;2.42;;
74543;SDS011;63016;55.030;38.710;2022-10-13T12:39:00;6.07;;;2.70;;
74543;SDS011;63016;55.030;38.710;2022-10-13T12:41:35;7.57;;;2.90;;
74543;SDS011;63016;55.030;38.710;2022-10-13T12:44:04;5.50;;;3.10;;
74543;SDS011;63016;55.030;38.710;2022-10-13T12:46:39;6.93;;;2.88;;
74543;SDS011;63016;55.030;38.710;2022-10-13T12:49:23;6.93;;;3.22;;
74543;SDS011;63016;55.030;38.710;2022-10-13T12:54:38;7.40;;;2.60;;
74543;SDS011;63016;55.030;38.710;2022-10-13T12:57:15;7.07;;;2.80;;
74543;SDS011;63016;55.030;38.710;2022-10-13T12:59:43;7.32;;;3.33;;
74543;SDS011;63016;55.030;38.710;2022-10-13T13:02:25;7.53;;;3.00;;
74543;SDS011;63016;55.030;38.710;2022-10-13T13:04:55;6.28;;;2.33;;
74543;SDS011;63016;55.030;38.710;2022-10-13T13:10:02;6.38;;;2.83;;
74543;SDS011;63016;55.030;38.710;2022-10-13T13:12:34;4.70;;;2.70;;
74543;SDS011;63016;55.030;38.710;2022-10-13T13:21:00;10.70;;;3.10;;
74543;SDS011;63016;55.030;38.710;2022-10-13T13:23:28;7.72;;;3.03;;
74543;SDS011;63016;55.030;38.710;2022-10-13T13:26:17;9.68;;;3.45;;
74543;SDS011;63016;55.030;38.710;2022-10-13T13:28:45;15.02;;;5.38;;
74543;SDS011;63016;55.030;38.710;2022-10-13T13:31:30;13.02;;;4.88;;
74543;SDS011;63016;55.030;38.710;2022-10-13T13:33:55;9.70;;;4.82;;
74543;SDS011;63016;55.030;38.710;2022-10-13T13:36:21;11.70;;;4.25;;
74543;SDS011;63016;55.030;38.710;2022-10-13T13:38:56;7.80;;;3.28;;
74543;SDS011;63016;55.030;38.710;2022-10-13T13:41:21;8.07;;;3.50;;
74543;SDS011;63016;55.030;38.710;2022-10-13T13:43:51;9.52;;;3.55;;
74543;SDS011;63016;55.030;38.710;2022-10-13T13:46:22;9.05;;;3.63;;
74543;SDS011;63016;55.030;38.710;2022-10-13T13:48:48;12.55;;;4.22;;
74543;SDS011;63016;55.030;38.710;2022-10-13T13:51:15;11.73;;;4.00;;
74543;SDS011;63016;55.030;38.710;2022-10-13T13:53:41;10.70;;;4.03;;
74543;SDS011;63016;55.030;38.710;2022-10-13T13:56:13;7.97;;;3.67;;
74543;SDS011;63016;55.030;38.710;2022-10-13T13:58:40;7.03;;;2.55;;
74543;SDS011;63016;55.030;38.710;2022-10-13T14:01:06;9.27;;;2.75;;
74543;SDS011;63016;55.030;38.710;2022-10-13T14:03:32;4.55;;;2.38;;
74543;SDS011;63016;55.030;38.710;2022-10-13T14:05:57;7.32;;;2.40;;
74543;SDS011;63016;55.030;38.710;2022-10-13T14:08:23;4.22;;;2.22;;
74543;SDS011;63016;55.030;38.710;2022-10-13T14:10:50;3.80;;;1.90;;
74543;SDS011;63016;55.030;38.710;2022-10-13T14:13:15;6.78;;;2.10;;
74543;SDS011;63016;55.030;38.710;2022-10-13T14:15:41;5.88;;;2.40;;
74543;SDS011;63016;55.030;38.710;2022-10-13T14:18:06;5.15;;;2.17;;
74543;SDS011;63016;55.030;38.710;2022-10-13T14:20:32;6.13;;;2.42;;
74543;SDS011;63016;55.030;38.710;2022-10-13T14:22:57;4.93;;;2.33;;
74543;SDS011;63016;55.030;38.710;2022-10-13T14:25:23;4.63;;;2.85;;
74543;SDS011;63016;55.030;38.710;2022-10-13T14:27:49;9.07;;;3.30;;
74543;SDS011;63016;55.030;38.710;2022-10-13T14:30:14;9.57;;;3.50;;
74543;SDS011;63016;55.030;38.710;2022-10-13T14:32:40;6.22;;;3.22;;
74543;SDS011;63016;55.030;38.710;2022-10-13T14:35:06;8.35;;;2.90;;
74543;SDS011;63016;55.030;38.710;2022-10-13T14:37:32;7.75;;;2.75;;
74543;SDS011;63016;55.030;38.710;2022-10-13T14:39:57;7.78;;;2.33;;
74543;SDS011;63016;55.030;38.710;2022-10-13T14:42:23;5.40;;;2.88;;
74543;SDS011;63016;55.030;38.710;2022-10-13T14:44:48;5.95;;;2.28;;
74543;SDS011;63016;55.030;38.710;2022-10-13T14:47:14;4.88;;;2.42;;
74543;SDS011;63016;55.030;38.710;2022-10-13T14:49:39;4.63;;;2.00;;
74543;SDS011;63016;55.030;38.710;2022-10-13T14:52:05;4.25;;;2.10;;
74543;SDS011;63016;55.030;38.710;2022-10-13T14:54:31;4.05;;;2.30;;
74543;SDS011;63016;55.030;38.710;2022-10-13T14:56:57;7.18;;;2.45;;
74543;SDS011;63016;55.030;38.710;2022-10-13T14:59:25;9.25;;;2.50;;
74543;SDS011;63016;55.030;38.710;2022-10-13T15:01:50;9.82;;;3.42;;
74543;SDS011;63016;55.030;38.710;2022-10-13T15:04:16;9.82;;;3.55;;
74543;SDS011;63016;55.030;38.710;2022-10-13T15:06:41;10.20;;;3.47;;
74543;SDS011;63016;55.030;38.710;2022-10-13T15:09:07;10.75;;;3.10;;
74543;SDS011;63016;55.030;38.710;2022-10-13T15:11:34;6.72;;;3.00;;
74543;SDS011;63016;55.030;38.710;2022-10-13T15:14:00;5.32;;;2.53;;
74543;SDS011;63016;55.030;38.710;2022-10-13T15:16:27;6.15;;;1.95;;
74543;SDS011;63016;55.030;38.710;2022-10-13T15:18:54;6.13;;;2.30;;
74543;SDS011;63016;55.030;38.710;2022-10-13T15:21:20;3.88;;;2.05;;
74543;SDS011;63016;55.030;38.710;2022-10-13T15:23:47;5.22;;;2.20;;
74543;SDS011;63016;55.030;38.710;2022-10-13T15:26:15;7.03;;;2.35;;
74543;SDS011;63016;55.030;38.710;2022-10-13T15:28:42;3.70;;;2.10;;
74543;SDS011;63016;55.030;38.710;2022-10-13T15:31:10;5.68;;;2.42;;
74543;SDS011;63016;55.030;38.710;2022-10-13T15:33:36;4.22;;;2.20;;
74543;SDS011;63016;55.030;38.710;2022-10-13T15:36:03;5.50;;;2.10;;
74543;SDS011;63016;55.030;38.710;2022-10-13T15:38:29;3.72;;;2.10;;
74543;SDS011;63016;55.030;38.710;2022-10-13T15:40:58;3.40;;;2.28;;
74543;SDS011;63016;55.030;38.710;2022-10-13T15:43:24;4.65;;;2.17;;
74543;SDS011;63016;55.030;38.710;2022-10-13T15:46:32;5.85;;;2.10;;
74543;SDS011;63016;55.030;38.710;2022-10-13T15:48:46;5.03;;;2.15;;
74543;SDS011;63016;55.030;38.710;2022-10-13T15:51:13;7.15;;;2.53;;
74543;SDS011;63016;55.030;38.710;2022-10-13T15:53:41;4.95;;;2.53;;
74543;SDS011;63016;55.030;38.710;2022-10-13T15:56:07;5.50;;;2.38;;
74543;SDS011;63016;55.030;38.710;2022-10-13T15:58:33;5.35;;;2.70;;
74543;SDS011;63016;55.030;38.710;2022-10-13T16:01:00;5.13;;;2.85;;
74543;SDS011;63016;55.030;38.710;2022-10-13T16:03:25;5.25;;;2.75;;
74543;SDS011;63016;55.030;38.710;2022-10-13T16:05:54;6.43;;;2.97;;
74543;SDS011;63016;55.030;38.710;2022-10-13T16:08:20;7.72;;;3.55;;
74543;SDS011;63016;55.030;38.710;2022-10-13T16:10:47;9.43;;;4.05;;
74543;SDS011;63016;55.030;38.710;2022-10-13T16:13:13;10.18;;;4.13;;
74543;SDS011;63016;55.030;38.710;2022-10-13T16:15:39;15.68;;;5.15;;